createdAt,value
2018-07-05T00:00:50.802Z,65.63
2018-07-05T00:01:50.381Z,65.91
2018-07-05T00:02:50.893Z,65.43
2018-07-05T00:03:50.958Z,65.43
2018-07-05T00:04:50.798Z,66.11
2018-07-05T00:05:50.967Z,66.08
2018-07-05T00:06:50.881Z,66.01
2018-07-05T00:07:50.690Z,65.72
2018-07-05T00:08:50.694Z,66.30
2018-07-05T00:09:50.791Z,66.59
2018-07-05T00:10:50.715Z,66.59
2018-07-05T00:11:50.632Z,66.69
2018-07-05T00:12:50.759Z,66.56
2018-07-05T00:13:50.701Z,67.04
2018-07-05T00:14:50.730Z,67.14
2018-07-05T00:15:50.736Z,67.14
2018-07-05T00:16:50.744Z,67.43
2018-07-05T00:17:50.747Z,66.85
2018-07-05T00:18:50.760Z,67.52
2018-07-05T00:19:50.944Z,67.04
2018-07-05T00:20:50.870Z,67.62
2018-07-05T00:21:50.717Z,68.68
2018-07-05T00:22:51.141Z,68.10
2018-07-05T00:23:50.897Z,67.91
2018-07-05T00:24:50.868Z,68.59
2018-07-05T00:25:51.000Z,68.87
2018-07-05T00:26:50.963Z,68.97
2018-07-05T00:27:50.873Z,69.16
2018-07-05T00:28:50.945Z,69.42
2018-07-05T00:29:50.983Z,69.80
2018-07-05T00:30:50.970Z,69.74
2018-07-05T00:31:50.979Z,69.84
2018-07-05T00:32:50.665Z,69.07
2018-07-05T00:33:50.775Z,69.35
2018-07-05T00:34:50.780Z,69.26
2018-07-05T00:35:50.857Z,69.45
2018-07-05T00:36:50.775Z,69.26
2018-07-05T00:37:50.853Z,69.64
2018-07-05T00:38:50.765Z,70.13
2018-07-05T00:39:50.911Z,70.22
2018-07-05T00:40:50.820Z,70.67
2018-07-05T00:41:50.811Z,70.42
2018-07-05T00:42:50.909Z,70.13
2018-07-05T00:43:50.769Z,71.15
2018-07-05T00:44:50.893Z,71.64
2018-07-05T00:45:50.901Z,71.44
2018-07-05T00:46:50.903Z,71.44
2018-07-05T00:47:50.898Z,71.73
2018-07-05T00:48:50.873Z,71.44
2018-07-05T00:49:50.858Z,71.64
2018-07-05T00:50:50.894Z,71.92
2018-07-05T00:51:50.998Z,72.60
2018-07-05T00:52:50.973Z,72.99
2018-07-05T00:53:51.135Z,72.31
2018-07-05T00:54:50.880Z,72.69
2018-07-05T00:55:53.277Z,73.66
2018-07-05T00:56:50.892Z,73.18
2018-07-05T00:57:50.895Z,73.47
2018-07-05T00:58:50.858Z,73.82
2018-07-05T00:59:50.439Z,74.10
2018-07-05T01:00:50.810Z,74.01
2018-07-05T01:01:51.084Z,74.30
2018-07-05T01:02:51.108Z,74.33
2018-07-05T01:03:51.117Z,74.88
2018-07-05T01:04:51.092Z,74.01
2018-07-05T01:05:51.139Z,74.97
2018-07-05T01:06:51.132Z,75.93
2018-07-05T01:07:51.083Z,75.55
2018-07-05T01:08:51.102Z,76.32
2018-07-05T01:09:51.129Z,75.74
2018-07-05T01:10:52.960Z,75.65
2018-07-05T01:11:51.120Z,75.84
2018-07-05T01:12:51.141Z,75.93
2018-07-05T01:13:51.060Z,76.42
2018-07-05T01:14:51.156Z,76.42
2018-07-05T01:15:51.149Z,76.51
2018-07-05T01:16:51.224Z,77.00
2018-07-05T01:17:51.156Z,76.51
2018-07-05T01:18:51.120Z,76.80
2018-07-05T01:19:51.174Z,77.67
2018-07-05T01:20:51.118Z,77.73
2018-07-05T01:21:50.557Z,77.92
2018-07-05T01:22:51.151Z,76.80
2018-07-05T01:23:51.138Z,77.38
2018-07-05T01:24:51.092Z,77.76
2018-07-05T01:25:51.092Z,77.86
2018-07-05T01:26:51.142Z,77.86
2018-07-05T01:27:51.100Z,78.21
2018-07-05T01:28:51.120Z,77.92
2018-07-05T01:29:51.088Z,78.54
2018-07-05T01:30:51.092Z,78.88
2018-07-05T01:31:51.094Z,78.59
2018-07-05T01:32:51.093Z,79.56
2018-07-05T01:33:51.149Z,79.56
2018-07-05T01:34:51.040Z,79.56
2018-07-05T01:35:51.143Z,79.94
2018-07-05T01:36:51.067Z,80.04
2018-07-05T01:37:51.117Z,79.85
2018-07-05T01:38:51.149Z,80.23
2018-07-05T01:39:51.155Z,80.81
2018-07-05T01:40:51.128Z,80.52
2018-07-05T01:41:51.127Z,80.52
2018-07-05T01:42:51.178Z,80.71
2018-07-05T01:43:50.579Z,80.62
2018-07-05T01:44:51.128Z,80.81
2018-07-05T01:45:52.938Z,80.71
2018-07-05T01:46:51.118Z,81.29
2018-07-05T01:47:51.174Z,81.10
2018-07-05T01:48:51.149Z,80.81
2018-07-05T01:49:51.069Z,81.35
2018-07-05T01:50:51.099Z,81.29
2018-07-05T01:51:51.106Z,81.39
2018-07-05T01:52:51.041Z,81.93
2018-07-05T01:53:51.101Z,82.02
2018-07-05T01:54:51.119Z,81.35
2018-07-05T01:55:51.127Z,81.54
2018-07-05T01:56:51.060Z,81.63
2018-07-05T01:57:51.161Z,82.41
2018-07-05T01:58:51.039Z,82.12
2018-07-05T01:59:51.141Z,82.31
2018-07-05T02:00:51.152Z,82.98
2018-07-05T02:01:51.078Z,82.31
2018-07-05T02:02:51.170Z,82.98
2018-07-05T02:03:51.089Z,83.28
2018-07-05T02:04:51.076Z,82.98
2018-07-05T02:05:51.101Z,82.89
2018-07-05T02:06:51.139Z,83.47
2018-07-05T02:07:51.159Z,83.28
2018-07-05T02:08:51.105Z,82.98
2018-07-05T02:09:51.118Z,83.28
2018-07-05T02:10:51.125Z,82.98
2018-07-05T02:11:51.213Z,83.28
2018-07-05T02:12:51.118Z,83.85
2018-07-05T02:13:51.108Z,83.47
2018-07-05T02:14:51.468Z,83.28
2018-07-05T02:15:51.190Z,83.47
2018-07-05T02:16:51.123Z,82.89
2018-07-05T02:17:51.153Z,83.66
2018-07-05T02:18:51.044Z,84.29
2018-07-05T02:19:51.129Z,85.25
2018-07-05T02:20:51.087Z,85.00
2018-07-05T02:21:51.114Z,85.06
2018-07-05T02:22:51.124Z,85.00
2018-07-05T02:23:51.140Z,84.67
2018-07-05T02:24:51.111Z,85.16
2018-07-05T02:25:51.201Z,85.06
2018-07-05T02:26:51.084Z,85.35
2018-07-05T02:27:51.175Z,85.54
2018-07-05T02:28:51.132Z,86.60
2018-07-05T02:29:51.199Z,86.69
2018-07-05T02:30:50.643Z,86.41
2018-07-05T02:31:53.043Z,86.41
2018-07-05T02:32:51.166Z,86.31
2018-07-05T02:33:50.660Z,86.41
2018-07-05T02:34:51.116Z,87.18
2018-07-05T02:35:51.128Z,86.55
2018-07-05T02:36:51.185Z,86.41
2018-07-05T02:37:51.123Z,86.89
2018-07-05T02:38:51.198Z,86.89
2018-07-05T02:39:51.119Z,87.66
2018-07-05T02:40:51.109Z,87.46
2018-07-05T02:41:51.100Z,87.08
2018-07-05T02:42:51.095Z,86.60
2018-07-05T02:43:51.176Z,86.60
2018-07-05T02:44:51.109Z,87.18
2018-07-05T02:45:51.179Z,87.27
2018-07-05T02:46:51.164Z,87.27
2018-07-05T02:47:51.149Z,87.46
2018-07-05T02:48:51.128Z,87.27
2018-07-05T02:49:51.118Z,87.46
2018-07-05T02:50:51.133Z,87.66
2018-07-05T02:51:51.109Z,87.76
2018-07-05T02:52:51.104Z,87.66
2018-07-05T02:53:51.139Z,88.14
2018-07-05T02:54:51.133Z,88.24
2018-07-05T02:55:51.199Z,88.81
2018-07-05T02:56:51.196Z,88.81
2018-07-05T02:57:51.107Z,88.71
2018-07-05T02:58:51.173Z,88.62
2018-07-05T02:59:51.108Z,88.43
2018-07-05T03:00:51.116Z,89.20
2018-07-05T03:01:51.240Z,89.20
2018-07-05T03:02:51.122Z,89.10
2018-07-05T03:03:51.229Z,89.01
2018-07-05T03:04:51.203Z,88.71
2018-07-05T03:05:51.207Z,89.20
2018-07-05T03:06:51.108Z,88.81
2018-07-05T03:07:51.086Z,89.58
2018-07-05T03:08:51.156Z,88.81
2018-07-05T03:09:50.689Z,89.25
2018-07-05T03:10:51.078Z,89.58
2018-07-05T03:11:51.210Z,89.54
2018-07-05T03:12:51.210Z,89.87
2018-07-05T03:13:51.123Z,89.58
2018-07-05T03:14:51.102Z,90.64
2018-07-05T03:15:50.715Z,89.83
2018-07-05T03:16:51.184Z,90.59
2018-07-05T03:17:51.101Z,90.21
2018-07-05T03:18:51.159Z,90.79
2018-07-05T03:19:51.179Z,90.89
2018-07-05T03:20:51.174Z,90.69
2018-07-05T03:21:51.247Z,90.50
2018-07-05T03:22:51.143Z,90.59
2018-07-05T03:23:51.200Z,90.41
2018-07-05T03:24:51.192Z,90.59
2018-07-05T03:25:51.194Z,90.31
2018-07-05T03:26:51.176Z,90.41
2018-07-05T03:27:51.204Z,90.98
2018-07-05T03:28:51.213Z,91.17
2018-07-05T03:29:51.200Z,91.94
2018-07-05T03:30:51.084Z,91.75
2018-07-05T03:31:51.182Z,91.75
2018-07-05T03:32:53.349Z,91.46
2018-07-05T03:33:51.113Z,91.94
2018-07-05T03:34:51.135Z,91.85
2018-07-05T03:35:50.749Z,92.13
2018-07-05T03:36:51.185Z,92.13
2018-07-05T03:37:51.175Z,92.04
2018-07-05T03:38:51.222Z,92.19
2018-07-05T03:39:51.224Z,93.05
2018-07-05T03:40:51.185Z,91.94
2018-07-05T03:41:51.189Z,92.04
2018-07-05T03:42:51.182Z,92.33
2018-07-05T03:43:51.203Z,92.23
2018-07-05T03:44:51.198Z,91.75
2018-07-05T03:45:51.192Z,92.04
2018-07-05T03:46:51.179Z,91.56
2018-07-05T03:47:51.218Z,92.04
2018-07-05T03:48:51.196Z,91.94
2018-07-05T03:49:51.190Z,92.23
2018-07-05T03:50:51.214Z,92.23
2018-07-05T03:51:51.189Z,92.33
2018-07-05T03:52:51.239Z,91.75
2018-07-05T03:53:51.239Z,91.66
2018-07-05T03:54:51.232Z,92.13
2018-07-05T03:55:51.230Z,92.13
2018-07-05T03:56:50.709Z,91.75
2018-07-05T03:57:51.219Z,92.33
2018-07-05T03:58:51.164Z,92.04
2018-07-05T03:59:51.178Z,92.04
2018-07-05T04:00:51.180Z,92.52
2018-07-05T04:01:51.176Z,92.43
2018-07-05T04:02:51.220Z,92.43
2018-07-05T04:03:51.195Z,92.13
2018-07-05T04:04:51.164Z,92.13
2018-07-05T04:05:51.195Z,92.71
2018-07-05T04:06:51.212Z,92.61
2018-07-05T04:07:51.209Z,92.33
2018-07-05T04:08:51.210Z,93.00
2018-07-05T04:09:51.222Z,93.10
2018-07-05T04:10:50.704Z,92.52
2018-07-05T04:11:51.186Z,92.13
2018-07-05T04:12:51.196Z,92.61
2018-07-05T04:13:51.196Z,91.75
2018-07-05T04:14:51.168Z,91.94
2018-07-05T04:15:51.238Z,91.80
2018-07-05T04:16:51.230Z,91.85
2018-07-05T04:17:51.239Z,92.13
2018-07-05T04:18:51.181Z,92.61
2018-07-05T04:19:51.227Z,92.33
2018-07-05T04:20:51.241Z,92.33
2018-07-05T04:21:51.101Z,91.94
2018-07-05T04:22:51.786Z,92.28
2018-07-05T04:23:51.134Z,91.85
2018-07-05T04:24:51.172Z,92.18
2018-07-05T04:25:51.699Z,92.33
2018-07-05T04:26:50.691Z,92.18
2018-07-05T04:27:51.179Z,93.05
2018-07-05T04:28:51.690Z,92.38
2018-07-05T04:29:51.684Z,92.57
2018-07-05T04:30:50.774Z,93.00
2018-07-05T04:31:51.221Z,92.43
2018-07-05T04:32:51.213Z,92.47
2018-07-05T04:33:51.208Z,92.66
2018-07-05T04:34:51.192Z,92.47
2018-07-05T04:35:51.261Z,92.43
2018-07-05T04:36:51.215Z,92.47
2018-07-05T04:37:51.107Z,92.47
2018-07-05T04:38:51.221Z,91.99
2018-07-05T04:39:51.197Z,92.38
2018-07-05T04:40:51.200Z,92.18
2018-07-05T04:41:51.242Z,92.43
2018-07-05T04:42:51.207Z,92.23
2018-07-05T04:43:51.288Z,91.60
2018-07-05T04:44:51.202Z,92.28
2018-07-05T04:45:51.239Z,92.38
2018-07-05T04:46:51.172Z,92.47
2018-07-05T04:47:51.107Z,92.38
2018-07-05T04:48:51.186Z,92.71
2018-07-05T04:49:51.206Z,92.66
2018-07-05T04:50:51.189Z,92.38
2018-07-05T04:51:51.198Z,91.99
2018-07-05T04:52:51.132Z,92.08
2018-07-05T04:53:51.223Z,92.18
2018-07-05T04:54:51.204Z,91.60
2018-07-05T04:55:51.195Z,92.18
2018-07-05T04:56:51.262Z,92.18
2018-07-05T04:57:51.233Z,92.38
2018-07-05T04:58:51.256Z,92.38
2018-07-05T04:59:51.219Z,91.89
2018-07-05T05:00:51.708Z,92.38
2018-07-05T05:01:51.161Z,92.18
2018-07-05T05:02:51.091Z,92.57
2018-07-05T05:03:51.710Z,92.28
2018-07-05T05:04:51.206Z,92.18
2018-07-05T05:05:51.224Z,92.47
2018-07-05T05:06:51.693Z,92.57
2018-07-05T05:07:51.127Z,91.80
2018-07-05T05:09:51.896Z,91.89
2018-07-05T05:10:51.701Z,91.22
2018-07-05T05:11:51.722Z,91.70
2018-07-05T05:12:52.595Z,92.18
2018-07-05T05:13:51.229Z,92.08
2018-07-05T05:14:51.284Z,91.70
2018-07-05T05:15:51.710Z,91.70
2018-07-05T05:16:50.953Z,91.80
2018-07-05T05:17:51.709Z,91.51
2018-07-05T05:18:51.204Z,91.89
2018-07-05T05:19:51.432Z,91.80
2018-07-05T05:20:51.174Z,91.89
2018-07-05T05:21:51.684Z,91.80
2018-07-05T05:22:51.460Z,91.70
2018-07-05T05:23:51.222Z,91.41
2018-07-05T05:24:51.459Z,91.80
2018-07-05T05:25:51.466Z,91.99
2018-07-05T05:26:51.996Z,91.84
2018-07-05T05:27:51.231Z,91.13
2018-07-05T05:28:51.231Z,91.13
2018-07-05T05:29:51.154Z,91.31
2018-07-05T05:30:51.196Z,91.51
2018-07-05T05:31:51.170Z,91.70
2018-07-05T05:32:51.418Z,92.08
2018-07-05T05:33:51.813Z,91.84
2018-07-05T05:34:51.627Z,91.84
2018-07-05T05:35:51.235Z,91.89
2018-07-05T05:36:51.226Z,91.84
2018-07-05T05:37:51.229Z,91.51
2018-07-05T05:38:53.019Z,92.28
2018-07-05T05:39:51.200Z,93.58
2018-07-05T05:40:51.221Z,93.96
2018-07-05T05:41:51.228Z,93.15
2018-07-05T05:42:51.252Z,92.85
2018-07-05T05:43:51.229Z,93.53
2018-07-05T05:44:51.209Z,93.33
2018-07-05T05:45:51.233Z,92.76
2018-07-05T05:46:51.719Z,92.76
2018-07-05T05:47:51.198Z,92.28
2018-07-05T05:48:51.215Z,92.28
2018-07-05T05:49:51.217Z,92.47
2018-07-05T05:50:53.570Z,92.28
2018-07-05T05:51:51.449Z,92.42
2018-07-05T05:52:50.783Z,92.22
2018-07-05T05:53:51.288Z,92.22
2018-07-05T05:54:51.246Z,92.13
2018-07-05T05:55:51.733Z,92.47
2018-07-05T05:56:50.754Z,91.75
2018-07-05T05:57:51.862Z,91.84
2018-07-05T05:58:50.851Z,91.75
2018-07-05T05:59:51.250Z,91.65
2018-07-05T06:00:51.225Z,91.75
2018-07-05T06:01:51.170Z,91.65
2018-07-05T06:02:50.875Z,91.65
2018-07-05T06:03:51.173Z,90.78
2018-07-05T06:04:51.806Z,90.30
2018-07-05T06:05:51.226Z,90.16
2018-07-05T06:06:51.285Z,89.48
2018-07-05T06:07:51.222Z,89.96
2018-07-05T06:08:57.232Z,89.86
2018-07-05T06:09:51.142Z,89.48
2018-07-05T06:10:51.219Z,89.67
2018-07-05T06:11:51.206Z,90.34
2018-07-05T06:12:51.256Z,89.82
2018-07-05T06:13:51.200Z,90.44
2018-07-05T06:14:51.267Z,89.67
2018-07-05T06:15:51.277Z,89.67
2018-07-05T06:16:51.403Z,89.48
2018-07-05T06:17:51.731Z,89.67
2018-07-05T06:18:52.353Z,89.58
2018-07-05T06:19:51.346Z,89.67
2018-07-05T06:20:51.249Z,89.81
2018-07-05T06:21:51.732Z,89.39
2018-07-05T06:22:51.276Z,89.09
2018-07-05T06:23:51.749Z,88.42
2018-07-05T06:24:51.480Z,88.37
2018-07-05T06:25:51.223Z,87.98
2018-07-05T06:26:51.460Z,88.13
2018-07-05T06:27:51.204Z,88.51
2018-07-05T06:28:51.307Z,88.71
2018-07-05T06:29:51.251Z,89.29
2018-07-05T06:30:51.176Z,89.86
2018-07-05T06:31:51.835Z,89.48
2018-07-05T06:32:51.213Z,88.85
2018-07-05T06:33:51.235Z,88.95
2018-07-05T06:34:51.179Z,88.56
2018-07-05T06:35:51.512Z,88.08
2018-07-05T06:36:50.795Z,87.98
2018-07-05T06:37:51.204Z,88.23
2018-07-05T06:38:51.459Z,88.51
2018-07-05T06:39:51.241Z,88.32
2018-07-05T06:40:51.260Z,89.19
2018-07-05T06:41:51.480Z,88.27
2018-07-05T06:42:51.733Z,88.71
2018-07-05T06:43:51.945Z,88.23
2018-07-05T06:44:51.241Z,87.88
2018-07-05T06:45:51.753Z,87.98
2018-07-05T06:46:51.447Z,87.88
2018-07-05T06:47:51.964Z,87.88
2018-07-05T06:48:51.212Z,87.98
2018-07-05T06:49:51.211Z,87.88
2018-07-05T06:50:51.748Z,87.40
2018-07-05T06:51:51.321Z,87.12
2018-07-05T06:52:53.161Z,87.70
2018-07-05T06:53:51.272Z,87.21
2018-07-05T06:54:51.773Z,87.21
2018-07-05T06:55:51.250Z,87.30
2018-07-05T06:56:51.213Z,85.61
2018-07-05T06:57:51.231Z,85.71
2018-07-05T06:58:51.157Z,85.81
2018-07-05T06:59:51.749Z,85.52
2018-07-05T07:00:51.276Z,85.13
2018-07-05T07:01:51.498Z,85.03
2018-07-05T07:02:50.865Z,84.36
2018-07-05T07:03:51.551Z,84.07
2018-07-05T07:04:51.183Z,84.75
2018-07-05T07:05:51.879Z,85.61
2018-07-05T07:06:51.232Z,85.71
2018-07-05T07:07:51.246Z,85.42
2018-07-05T07:08:51.223Z,85.23
2018-07-05T07:09:50.899Z,85.52
2018-07-05T07:10:51.216Z,85.23
2018-07-05T07:11:51.280Z,84.55
2018-07-05T07:12:51.735Z,84.11
2018-07-05T07:13:51.306Z,83.63
2018-07-05T07:14:51.316Z,83.92
2018-07-05T07:15:51.460Z,84.31
2018-07-05T07:16:51.319Z,83.15
2018-07-05T07:17:51.752Z,82.86
2018-07-05T07:18:51.761Z,82.96
2018-07-05T07:19:51.752Z,82.76
2018-07-05T07:20:51.205Z,82.96
2018-07-05T07:21:51.234Z,83.05
2018-07-05T07:22:51.406Z,83.00
2018-07-05T07:23:51.506Z,82.96
2018-07-05T07:24:51.739Z,82.28
2018-07-05T07:25:50.951Z,81.80
2018-07-05T07:26:51.648Z,81.90
2018-07-05T07:27:51.507Z,81.84
2018-07-05T07:28:50.917Z,81.55
2018-07-05T07:29:51.235Z,81.16
2018-07-05T07:30:51.508Z,81.16
2018-07-05T07:31:51.429Z,80.58
2018-07-05T07:32:51.465Z,81.16
2018-07-05T07:33:51.226Z,81.16
2018-07-05T07:34:51.279Z,81.07
2018-07-05T07:35:50.984Z,80.58
2018-07-05T07:36:51.560Z,81.16
2018-07-05T07:37:51.148Z,80.68
2018-07-05T07:38:51.162Z,81.26
2018-07-05T07:39:51.767Z,81.20
2018-07-05T07:40:51.795Z,80.53
2018-07-05T07:41:51.274Z,80.72
2018-07-05T07:42:51.942Z,80.62
2018-07-05T07:43:50.984Z,80.05
2018-07-05T07:44:51.932Z,80.24
2018-07-05T07:45:51.008Z,79.95
2018-07-05T07:46:51.778Z,80.14
2018-07-05T07:47:51.867Z,79.85
2018-07-05T07:48:51.364Z,79.37
2018-07-05T07:49:51.373Z,79.17
2018-07-05T07:50:51.398Z,79.08
2018-07-05T07:51:51.404Z,79.08
2018-07-05T07:52:51.009Z,78.89
2018-07-05T07:53:52.278Z,78.41
2018-07-05T07:54:51.330Z,78.54
2018-07-05T07:55:51.333Z,78.92
2018-07-05T07:56:51.783Z,78.83
2018-07-05T07:57:51.403Z,78.64
2018-07-05T07:58:51.969Z,78.25
2018-07-05T07:59:51.910Z,77.38
2018-07-05T08:00:51.476Z,76.51
2018-07-05T08:01:51.077Z,76.12
2018-07-05T08:02:51.839Z,76.12
2018-07-05T08:03:51.797Z,75.97
2018-07-05T08:04:51.494Z,75.87
2018-07-05T08:05:51.181Z,75.39
2018-07-05T08:06:51.164Z,75.68
2018-07-05T08:07:51.779Z,75.10
2018-07-05T08:08:51.484Z,75.20
2018-07-05T08:09:51.477Z,74.90
2018-07-05T08:10:51.442Z,74.71
2018-07-05T08:11:53.136Z,74.23
2018-07-05T08:12:51.900Z,74.13
2018-07-05T08:13:51.351Z,74.04
2018-07-05T08:14:52.310Z,74.81
2018-07-05T08:15:51.448Z,75.00
2018-07-05T08:16:51.527Z,75.04
2018-07-05T08:17:51.381Z,74.13
2018-07-05T08:18:51.356Z,74.23
2018-07-05T08:19:51.415Z,73.88
2018-07-05T08:20:51.818Z,74.55
2018-07-05T08:21:51.393Z,74.27
2018-07-05T08:22:51.344Z,74.71
2018-07-05T08:23:51.009Z,74.55
2018-07-05T08:24:51.977Z,73.97
2018-07-05T08:25:51.074Z,73.55
2018-07-05T08:26:51.433Z,73.59
2018-07-05T08:27:51.872Z,74.04
2018-07-05T08:28:51.487Z,74.07
2018-07-05T08:29:51.563Z,73.97
2018-07-05T08:30:51.542Z,73.10
2018-07-05T08:31:53.443Z,73.01
2018-07-05T08:32:51.531Z,72.52
2018-07-05T08:33:51.128Z,73.01
2018-07-05T08:34:51.485Z,72.62
2018-07-05T08:35:52.289Z,72.42
2018-07-05T08:36:52.073Z,73.10
2018-07-05T08:37:51.500Z,72.62
2018-07-05T08:38:51.365Z,71.75
2018-07-05T08:39:51.357Z,71.26
2018-07-05T08:40:51.943Z,70.20
2018-07-05T08:41:52.073Z,70.59
2018-07-05T08:42:51.902Z,71.26
2018-07-05T08:43:52.148Z,71.01
2018-07-05T08:44:52.046Z,70.82
2018-07-05T08:45:56.044Z,71.36
2018-07-05T08:46:51.494Z,71.94
2018-07-05T08:48:52.851Z,71.46
2018-07-05T08:49:51.947Z,70.98
2018-07-05T08:50:51.609Z,70.59
2018-07-05T08:51:51.503Z,70.98
2018-07-05T08:52:51.564Z,70.59
2018-07-05T08:53:52.020Z,70.78
2018-07-05T08:54:54.724Z,70.40
2018-07-05T08:55:53.081Z,70.72
2018-07-05T08:56:51.820Z,70.53
2018-07-05T08:57:51.810Z,70.04
2018-07-05T08:58:54.685Z,69.46
2018-07-05T08:59:51.647Z,68.91
2018-07-05T09:00:51.749Z,68.11
2018-07-05T09:01:52.307Z,67.85
2018-07-05T09:02:51.791Z,67.37
2018-07-05T09:03:51.716Z,67.27
2018-07-05T09:04:51.783Z,68.33
2018-07-05T09:05:52.438Z,69.01
2018-07-05T09:06:52.041Z,67.56
2018-07-05T09:07:52.308Z,66.56
2018-07-05T09:08:52.760Z,66.66
2018-07-05T09:09:51.788Z,66.40
2018-07-05T09:10:51.746Z,66.75
2018-07-05T09:11:53.618Z,66.60
2018-07-05T09:12:51.814Z,66.98
2018-07-05T09:13:51.807Z,67.53
2018-07-05T09:14:51.807Z,67.91
2018-07-05T09:15:52.513Z,67.91
2018-07-05T09:16:51.799Z,67.24
2018-07-05T09:17:52.098Z,66.47
2018-07-05T09:18:51.805Z,66.69
2018-07-05T09:19:51.785Z,66.02
2018-07-05T09:20:52.010Z,66.40
2018-07-05T09:21:52.012Z,66.98
2018-07-05T09:22:51.819Z,66.30
2018-07-05T09:23:52.018Z,65.72
2018-07-05T09:24:52.300Z,66.40
2018-07-05T09:25:51.967Z,66.40
2018-07-05T09:26:51.721Z,66.20
2018-07-05T09:27:52.032Z,66.43
2018-07-05T09:28:51.757Z,66.63
2018-07-05T09:29:52.075Z,66.20
2018-07-05T09:30:52.006Z,66.24
2018-07-05T09:31:52.310Z,66.53
2018-07-05T09:32:51.787Z,65.85
2018-07-05T09:33:51.198Z,65.56
2018-07-05T09:34:52.417Z,66.14
2018-07-05T09:35:52.017Z,65.69
2018-07-05T09:36:51.797Z,65.50
2018-07-05T09:37:52.334Z,65.11
2018-07-05T09:38:51.751Z,65.08
2018-07-05T09:39:52.071Z,64.43
2018-07-05T09:40:51.794Z,64.34
2018-07-05T09:41:51.754Z,63.75
2018-07-05T09:42:51.961Z,63.75
2018-07-05T09:43:51.770Z,64.43
2018-07-05T09:44:51.794Z,63.92
2018-07-05T09:45:51.864Z,63.95
2018-07-05T09:46:52.358Z,63.95
2018-07-05T09:47:51.997Z,63.37
2018-07-05T09:48:51.316Z,63.07
2018-07-05T09:49:51.780Z,62.62
2018-07-05T09:50:51.811Z,62.72
2018-07-05T09:51:52.648Z,63.27
2018-07-05T09:52:52.390Z,63.01
2018-07-05T09:53:51.551Z,62.72
2018-07-05T09:54:52.063Z,62.72
2018-07-05T09:55:51.824Z,61.75
2018-07-05T09:56:51.792Z,61.55
2018-07-05T09:57:51.805Z,61.94
2018-07-05T09:58:52.079Z,61.75
2018-07-05T09:59:51.860Z,61.55
2018-07-05T10:00:52.050Z,62.82
2018-07-05T10:01:52.070Z,61.26
2018-07-05T10:02:51.874Z,61.07
2018-07-05T10:03:51.928Z,61.75
2018-07-05T10:04:52.314Z,62.04
2018-07-05T10:05:51.445Z,61.26
2018-07-05T10:06:53.042Z,61.26
2018-07-05T10:07:53.528Z,60.78
2018-07-05T10:08:51.812Z,61.07
2018-07-05T10:09:51.854Z,60.68
2018-07-05T10:10:54.052Z,60.88
2018-07-05T10:11:51.363Z,60.58
2018-07-05T10:12:52.327Z,60.32
2018-07-05T10:13:53.854Z,60.30
2018-07-05T10:15:51.479Z,60.32
2018-07-05T10:16:52.066Z,60.13
2018-07-05T10:17:57.834Z,59.16
2018-07-05T10:18:52.699Z,59.64
2018-07-05T10:19:51.595Z,58.87
2018-07-05T10:20:52.264Z,58.80
2018-07-05T10:21:51.845Z,57.73
2018-07-05T10:22:51.852Z,57.64
2018-07-05T10:23:52.532Z,58.22
2018-07-05T10:24:51.493Z,58.70
2018-07-05T10:25:51.855Z,58.22
2018-07-05T10:26:51.856Z,57.73
2018-07-05T10:27:51.837Z,57.73
2018-07-05T10:28:52.321Z,57.73
2018-07-05T10:29:51.830Z,57.25
2018-07-05T10:30:52.343Z,57.34
2018-07-05T10:31:51.865Z,57.73
2018-07-05T10:32:51.887Z,56.67
2018-07-05T10:33:52.335Z,56.28
2018-07-05T10:34:51.814Z,56.64
2018-07-05T10:35:52.467Z,56.54
2018-07-05T10:36:51.961Z,56.76
2018-07-05T10:37:53.053Z,56.47
2018-07-05T10:38:52.337Z,56.57
2018-07-05T10:39:51.872Z,56.37
2018-07-05T10:40:53.997Z,56.47
2018-07-05T10:41:51.931Z,56.01
2018-07-05T10:42:51.820Z,55.73
2018-07-05T10:43:51.828Z,55.33
2018-07-05T10:44:52.059Z,54.66
2018-07-05T10:45:51.826Z,55.33
2018-07-05T10:46:51.772Z,55.43
2018-07-05T10:47:52.331Z,55.82
2018-07-05T10:48:51.905Z,56.01
2018-07-05T10:49:51.897Z,55.69
2018-07-05T10:50:51.877Z,56.01
2018-07-05T10:51:51.861Z,55.73
2018-07-05T10:52:52.019Z,55.04
2018-07-05T10:53:51.877Z,54.82
2018-07-05T10:54:52.549Z,54.94
2018-07-05T10:55:52.057Z,55.04
2018-07-05T10:56:51.935Z,54.56
2018-07-05T10:57:51.952Z,54.17
2018-07-05T10:58:51.969Z,54.78
2018-07-05T10:59:52.420Z,54.78
2018-07-05T11:00:52.264Z,54.20
2018-07-05T11:01:53.790Z,54.10
2018-07-05T11:02:52.058Z,53.74
2018-07-05T11:03:51.631Z,53.64
2018-07-05T11:04:52.093Z,53.16
2018-07-05T11:05:51.705Z,52.96
2018-07-05T11:06:53.054Z,53.13
2018-07-05T11:07:52.151Z,53.64
2018-07-05T11:08:52.548Z,53.25
2018-07-05T11:09:52.068Z,52.98
2018-07-05T11:10:52.140Z,52.86
2018-07-05T11:11:52.501Z,52.67
2018-07-05T11:12:52.535Z,52.64
2018-07-05T11:13:52.552Z,52.37
2018-07-05T11:14:53.419Z,52.28
2018-07-05T11:15:52.161Z,52.96
2018-07-05T11:16:52.036Z,52.09
2018-07-05T11:17:52.005Z,51.79
2018-07-05T11:18:52.012Z,51.04
2018-07-05T11:19:53.433Z,50.68
2018-07-05T11:20:52.627Z,50.12
2018-07-05T11:21:52.453Z,49.71
2018-07-05T11:22:52.125Z,49.41
2018-07-05T11:23:52.131Z,49.63
2018-07-05T11:24:52.123Z,49.61
2018-07-05T11:25:52.129Z,49.61
2018-07-05T11:26:52.092Z,50.48
2018-07-05T11:27:52.075Z,49.90
2018-07-05T11:28:52.570Z,50.09
2018-07-05T11:29:52.542Z,50.48
2018-07-05T11:30:52.204Z,49.92
2018-07-05T11:31:53.606Z,49.83
2018-07-05T11:32:52.705Z,49.83
2018-07-05T11:33:53.135Z,49.54
2018-07-05T11:34:52.354Z,49.73
2018-07-05T11:35:52.325Z,49.15
2018-07-05T11:36:52.441Z,49.24
2018-07-05T11:37:52.553Z,49.63
2018-07-05T11:38:52.653Z,49.46
2018-07-05T11:39:52.418Z,48.97
2018-07-05T11:40:51.870Z,49.15
2018-07-05T11:41:52.363Z,48.78
2018-07-05T11:42:52.890Z,49.17
2018-07-05T11:43:52.078Z,48.71
2018-07-05T11:44:52.870Z,48.61
2018-07-05T11:45:51.814Z,48.41
2018-07-05T11:46:52.722Z,47.95
2018-07-05T11:47:52.149Z,47.15
2018-07-05T11:48:52.586Z,47.73
2018-07-05T11:49:53.078Z,47.83
2018-07-05T11:50:51.865Z,48.32
2018-07-05T11:51:54.413Z,48.19
2018-07-05T11:52:52.908Z,48.19
2018-07-05T11:53:52.533Z,47.92
2018-07-05T11:54:53.063Z,47.52
2018-07-05T11:55:52.596Z,47.92
2018-07-05T11:56:52.104Z,47.25
2018-07-05T11:57:52.331Z,47.42
2018-07-05T11:58:53.004Z,48.75
2018-07-05T11:59:52.898Z,48.00
2018-07-05T12:00:52.617Z,47.80
2018-07-05T12:01:52.401Z,47.44
2018-07-05T12:02:51.802Z,47.80
2018-07-05T12:03:52.617Z,46.56
2018-07-05T12:04:52.643Z,46.86
2018-07-05T12:05:52.598Z,45.90
2018-07-05T12:06:51.894Z,46.17
2018-07-05T12:07:52.636Z,45.90
2018-07-05T12:08:52.321Z,46.00
2018-07-05T12:09:52.396Z,45.98
2018-07-05T12:10:52.409Z,46.17
2018-07-05T12:11:51.900Z,46.30
2018-07-05T12:12:52.889Z,45.51
2018-07-05T12:13:52.498Z,46.17
2018-07-05T12:14:52.560Z,46.17
2018-07-05T12:15:52.337Z,46.10
2018-07-05T12:16:52.137Z,45.81
2018-07-05T12:17:54.521Z,45.44
2018-07-05T12:18:52.605Z,44.37
2018-07-05T12:19:52.348Z,44.56
2018-07-05T12:20:52.568Z,44.56
2018-07-05T12:21:53.040Z,44.38
2018-07-05T12:22:54.109Z,43.71
2018-07-05T12:23:52.556Z,43.71
2018-07-05T12:24:52.461Z,44.09
2018-07-05T12:25:52.595Z,43.43
2018-07-05T12:26:52.472Z,43.51
2018-07-05T12:27:52.642Z,43.12
2018-07-05T12:28:52.451Z,42.85
2018-07-05T12:29:54.473Z,42.46
2018-07-05T12:30:52.418Z,42.34
2018-07-05T12:31:52.644Z,43.59
2018-07-05T12:32:52.610Z,43.90
2018-07-05T12:33:54.269Z,43.51
2018-07-05T12:34:52.484Z,42.94
2018-07-05T12:35:54.186Z,42.94
2018-07-05T12:36:52.901Z,42.48
2018-07-05T12:37:52.602Z,42.29
2018-07-05T12:38:52.611Z,42.30
2018-07-05T12:39:53.099Z,41.83
2018-07-05T12:40:52.475Z,41.21
2018-07-05T12:41:52.461Z,42.71
2018-07-05T12:42:52.474Z,43.51
2018-07-05T12:43:52.473Z,42.73
2018-07-05T12:44:53.342Z,42.94
2018-07-05T12:45:52.558Z,42.87
2018-07-05T12:46:52.682Z,42.30
2018-07-05T12:47:52.812Z,41.44
2018-07-05T12:48:52.664Z,41.15
2018-07-05T12:49:52.688Z,40.37
2018-07-05T12:50:52.966Z,40.27
2018-07-05T12:51:53.576Z,40.55
2018-07-05T12:52:52.871Z,40.84
2018-07-05T12:53:52.666Z,41.70
2018-07-05T12:54:52.872Z,42.19
2018-07-05T12:55:52.975Z,41.80